Time;durP1;ratioP1;P1;durP2;ratioP2;P2;SDS_P1;SDS_P2;PMS_P1;PMS_P2;Temp;Humidity;BMP_temperature;BMP_pressure;BME280_temperature;BME280_humidity;BME280_pressure;Samples;Min_cycle;Max_cycle;Signal;HPM_P1;HPM_P2
2022/10/16 00:02:57;;;;;;;3.40;1.20;;;12.30;99.90;;;;;;9192677;19;19949;-74
2022/10/16 00:06:04;;;;;;;3.72;1.50;;;12.20;99.90;;;;;;9193926;19;19935;-74
2022/10/16 00:09:09;;;;;;;3.60;1.25;;;11.90;99.90;;;;;;9194585;19;20051;-74
2022/10/16 00:12:13;;;;;;;7.65;1.48;;;11.90;99.90;;;;;;9193802;19;19919;-73
2022/10/16 00:15:17;;;;;;;4.45;1.30;;;11.30;99.90;;;;;;9193749;19;19923;-74
2022/10/16 00:18:21;;;;;;;5.10;1.23;;;11.80;99.90;;;;;;9194302;19;19966;-74
2022/10/16 00:21:29;;;;;;;7.53;1.50;;;11.30;99.90;;;;;;9193318;19;19911;-75
2022/10/16 00:24:34;;;;;;;3.90;1.27;;;;;;;;;;9193016;19;19922;-74
2022/10/16 00:27:38;;;;;;;6.00;1.52;;;11.60;99.90;;;;;;9193302;19;20328;-75
2022/10/16 00:30:42;;;;;;;7.55;1.58;;;11.40;99.90;;;;;;9198276;19;19922;-75
2022/10/16 00:33:46;;;;;;;6.55;1.10;;;11.90;99.90;;;;;;9192776;19;19918;-74
2022/10/16 00:36:52;;;;;;;3.45;0.93;;;11.40;99.90;;;;;;9191641;19;19978;-74
2022/10/16 00:39:56;;;;;;;6.40;1.48;;;11.50;99.90;;;;;;9193146;19;19918;-74
2022/10/16 00:43:00;;;;;;;5.38;0.90;;;11.20;99.90;;;;;;9191758;19;19919;-74
2022/10/16 00:46:05;;;;;;;3.33;1.20;;;11.50;99.90;;;;;;9192671;19;19911;-74
2022/10/16 00:49:12;;;;;;;5.95;1.20;;;12.10;99.90;;;;;;9193375;19;19918;-74
2022/10/16 00:52:20;;;;;;;3.33;1.00;;;11.80;99.90;;;;;;9193088;19;19919;-74
2022/10/16 00:55:24;;;;;;;4.78;1.30;;;10.90;99.90;;;;;;9190332;19;20255;-74
2022/10/16 00:58:28;;;;;;;3.05;1.35;;;11.10;99.90;;;;;;9196999;19;19918;-73
2022/10/16 01:01:32;;;;;;;1.30;0.98;;;11.20;99.90;;;;;;9192372;19;19918;-74
2022/10/16 01:04:40;;;;;;;3.63;1.30;;;11.50;99.90;;;;;;9191875;19;19918;-74
2022/10/16 01:07:56;;;;;;;3.08;1.15;;;11.50;99.90;;;;;;9192619;19;19919;-74
2022/10/16 01:11:09;;;;;;;5.65;1.25;;;11.60;99.90;;;;;;9191736;19;20043;-74
2022/10/16 01:14:22;;;;;;;5.43;1.30;;;11.30;99.90;;;;;;9192319;19;19915;-75
2022/10/16 01:17:35;;;;;;;3.85;1.02;;;11.60;99.90;;;;;;9190005;19;19927;-74
2022/10/16 01:20:45;;;;;;;4.95;2.10;;;11.70;99.90;;;;;;9191428;19;20306;-75
2022/10/16 01:24:01;;;;;;;3.88;1.42;;;11.40;99.90;;;;;;9190392;19;19922;-74
2022/10/16 01:27:13;;;;;;;6.95;1.25;;;11.30;99.90;;;;;;9191260;19;19906;-74
2022/10/16 01:30:23;;;;;;;3.75;0.85;;;11.60;99.90;;;;;;9191053;19;20309;-74
2022/10/16 01:33:30;;;;;;;3.28;1.00;;;11.50;99.90;;;;;;9190930;19;19922;-74
2022/10/16 01:36:41;;;;;;;6.13;0.90;;;11.30;99.90;;;;;;9191321;19;19923;-74
2022/10/16 01:39:50;;;;;;;3.10;0.88;;;11.60;99.90;;;;;;9190853;19;19911;-73
2022/10/16 01:43:01;;;;;;;4.88;1.23;;;11.70;99.90;;;;;;9187453;19;19915;-74
2022/10/16 01:46:06;;;;;;;3.33;1.00;;;12.00;99.90;;;;;;9192112;19;20268;-73
2022/10/16 01:49:13;;;;;;;3.45;1.00;;;11.90;99.90;;;;;;9198737;19;19919;-74
2022/10/16 01:52:20;;;;;;;2.88;0.90;;;12.20;99.90;;;;;;9198508;19;19919;-74
2022/10/16 01:55:31;;;;;;;2.08;1.00;;;11.60;99.90;;;;;;9195785;19;19914;-74
2022/10/16 01:58:44;;;;;;;4.35;1.17;;;11.70;99.90;;;;;;9200238;19;19982;-74
2022/10/16 02:01:53;;;;;;;4.20;1.27;;;12.20;99.90;;;;;;9196039;19;20291;-74
2022/10/16 02:05:01;;;;;;;2.90;0.98;;;11.80;99.90;;;;;;9197933;19;20467;-74
2022/10/16 02:08:05;;;;;;;4.97;0.90;;;;;;;;;;9198567;19;19914;-74
2022/10/16 02:11:09;;;;;;;2.38;1.38;;;11.30;99.90;;;;;;9197511;19;20344;-74
2022/10/16 02:14:16;;;;;;;3.72;1.38;;;12.20;99.90;;;;;;9196279;19;19919;-74
2022/10/16 02:17:21;;;;;;;2.72;1.30;;;11.30;99.90;;;;;;9195075;19;20463;-74
2022/10/16 02:20:29;;;;;;;1.60;0.93;;;11.50;99.90;;;;;;9198156;19;19949;-74
2022/10/16 02:23:43;;;;;;;3.20;1.38;;;11.50;99.90;;;;;;9194785;19;20360;-74
2022/10/16 02:26:53;;;;;;;4.20;1.15;;;11.90;99.90;;;;;;9200479;19;19978;-74
2022/10/16 02:30:10;;;;;;;2.40;1.15;;;11.50;99.90;;;;;;9197520;19;19953;-74
2022/10/16 02:33:18;;;;;;;3.05;1.23;;;12.60;99.90;;;;;;9197671;19;19925;-74
2022/10/16 02:36:23;;;;;;;5.47;1.10;;;11.50;99.90;;;;;;9197427;19;19915;-74
2022/10/16 02:39:28;;;;;;;4.10;1.40;;;11.50;99.90;;;;;;9197304;19;20241;-74
2022/10/16 02:42:35;;;;;;;6.47;1.38;;;11.60;99.90;;;;;;9195522;19;19993;-74
2022/10/16 02:45:42;;;;;;;3.63;0.85;;;11.70;99.90;;;;;;9197358;19;20348;-74
2022/10/16 02:48:46;;;;;;;3.95;1.05;;;;;;;;;;9196669;19;19923;-74
2022/10/16 02:51:50;;;;;;;2.25;1.20;;;11.60;99.90;;;;;;9196774;19;19911;-76
2022/10/16 02:54:54;;;;;;;4.05;1.75;;;12.40;99.90;;;;;;9193758;19;19949;-75
2022/10/16 02:57:57;;;;;;;4.97;1.38;;;11.70;99.90;;;;;;9197341;19;19931;-75
2022/10/16 03:01:04;;;;;;;2.13;1.15;;;11.60;99.90;;;;;;9195984;19;19911;-74
2022/10/16 03:04:08;;;;;;;4.63;1.30;;;;;;;;;;9193553;19;19921;-77
2022/10/16 03:07:12;;;;;;;4.43;1.20;;;11.70;99.90;;;;;;9195980;19;19922;-75
2022/10/16 03:10:16;;;;;;;2.13;1.20;;;12.50;99.90;;;;;;9195980;19;20237;-75
2022/10/16 03:13:20;;;;;;;2.25;1.30;;;11.70;99.90;;;;;;9195579;19;19911;-75
2022/10/16 03:16:26;;;;;;;3.63;1.27;;;11.60;99.90;;;;;;9195103;19;19929;-76
2022/10/16 03:19:30;;;;;;;4.20;1.50;;;12.50;99.90;;;;;;9195673;19;20256;-77
2022/10/16 03:22:34;;;;;;;4.57;1.23;;;11.70;99.90;;;;;;9194712;19;19914;-74
2022/10/16 03:25:38;;;;;;;2.80;1.10;;;12.00;99.90;;;;;;9195248;19;19974;-74
2022/10/16 03:28:42;;;;;;;4.38;1.40;;;12.20;99.90;;;;;;9200926;19;19918;-73
2022/10/16 03:31:50;;;;;;;4.03;1.35;;;11.50;99.90;;;;;;9195946;19;20330;-73
2022/10/16 03:34:54;;;;;;;1.77;0.98;;;11.60;99.90;;;;;;9194808;19;19930;-74
2022/10/16 03:37:58;;;;;;;3.75;1.10;;;11.60;99.90;;;;;;9195153;19;19973;-73
2022/10/16 03:41:02;;;;;;;2.40;1.05;;;11.70;99.90;;;;;;9194798;19;19917;-73
2022/10/16 03:44:05;;;;;;;3.03;1.05;;;12.60;99.90;;;;;;9193078;19;19945;-74
2022/10/16 03:47:12;;;;;;;4.47;1.25;;;11.70;99.90;;;;;;9194915;19;19914;-73
2022/10/16 03:50:16;;;;;;;3.42;1.20;;;12.40;99.90;;;;;;9195212;19;19914;-73
2022/10/16 03:53:20;;;;;;;4.55;1.00;;;;;;;;;;9194102;19;19918;-74
2022/10/16 03:56:24;;;;;;;2.35;1.27;;;12.10;99.90;;;;;;9197550;19;19926;-74
2022/10/16 03:59:28;;;;;;;3.35;0.90;;;11.50;99.90;;;;;;9192541;19;19947;-75
2022/10/16 04:02:34;;;;;;;2.22;0.98;;;12.50;99.90;;;;;;9194419;19;19910;-75
2022/10/16 04:05:38;;;;;;;;;;;12.00;99.90;;;;;;9196201;19;19918;-75
2022/10/16 04:08:44;;;;;;;;;;;12.10;99.90;;;;;;9196353;19;19911;-75
2022/10/16 04:11:48;;;;;;;1.63;1.08;;;11.60;99.90;;;;;;9194630;19;19918;-75
2022/10/16 04:14:52;;;;;;;2.85;1.10;;;12.00;99.90;;;;;;9194335;19;19939;-74
2022/10/16 04:17:59;;;;;;;2.60;1.08;;;12.30;99.90;;;;;;9194041;19;19945;-73
2022/10/16 04:21:05;;;;;;;4.28;1.50;;;12.40;99.90;;;;;;9193792;19;19921;-74
2022/10/16 04:24:10;;;;;;;4.95;1.33;;;12.60;99.90;;;;;;9191665;19;20309;-74
2022/10/16 04:27:14;;;;;;;3.13;1.02;;;11.80;99.90;;;;;;9197877;19;20376;-73
2022/10/16 04:30:18;;;;;;;2.92;1.42;;;12.20;99.90;;;;;;9193392;19;19918;-73
2022/10/16 04:33:25;;;;;;;3.72;1.50;;;11.10;99.90;;;;;;9193520;19;19918;-73
2022/10/16 04:36:30;;;;;;;3.38;1.20;;;11.60;99.90;;;;;;9193931;19;19919;-75
2022/10/16 04:39:34;;;;;;;2.42;1.23;;;11.20;99.90;;;;;;9193633;19;20300;-75
2022/10/16 04:42:38;;;;;;;2.75;2.08;;;12.00;99.90;;;;;;9192933;19;19926;-74
2022/10/16 04:45:42;;;;;;;1.58;1.10;;;11.40;99.90;;;;;;9193230;19;20363;-75
2022/10/16 04:48:48;;;;;;;3.22;1.50;;;11.70;99.90;;;;;;9192814;19;20412;-75
2022/10/16 04:51:53;;;;;;;3.42;1.23;;;11.30;99.90;;;;;;9192714;19;19911;-76
2022/10/16 04:55:00;;;;;;;2.65;1.00;;;11.20;99.90;;;;;;9190668;19;19974;-74
2022/10/16 04:58:04;;;;;;;3.65;1.45;;;11.10;99.90;;;;;;9197542;19;19925;-74
2022/10/16 05:01:08;;;;;;;3.45;1.20;;;11.20;99.90;;;;;;9192667;19;19921;-75
2022/10/16 05:04:15;;;;;;;1.88;1.00;;;11.80;99.90;;;;;;9190837;19;19926;-76
2022/10/16 05:07:18;;;;;;;4.22;1.40;;;11.30;99.90;;;;;;9191816;19;19918;-75
2022/10/16 05:10:23;;;;;;;2.65;1.10;;;11.10;99.90;;;;;;9192612;19;19915;-75
2022/10/16 05:13:27;;;;;;;3.22;1.50;;;11.20;99.90;;;;;;9192135;19;19914;-74
2022/10/16 05:16:31;;;;;;;3.72;1.42;;;12.20;99.90;;;;;;9190279;19;20269;-75
2022/10/16 05:19:37;;;;;;;1.75;0.80;;;11.50;99.90;;;;;;9192087;19;19918;-75
2022/10/16 05:22:41;;;;;;;3.25;1.27;;;12.30;99.90;;;;;;9197108;19;19914;-74
2022/10/16 05:25:45;;;;;;;2.10;1.38;;;11.30;99.90;;;;;;9204036;19;19952;-73
2022/10/16 05:28:49;;;;;;;3.25;1.30;;;11.60;99.90;;;;;;9199734;19;19914;-73
2022/10/16 05:31:54;;;;;;;2.08;0.88;;;12.30;99.90;;;;;;9199868;19;19927;-74
2022/10/16 05:35:01;;;;;;;4.88;1.27;;;11.80;99.90;;;;;;9199088;19;19976;-74
2022/10/16 05:38:06;;;;;;;2.13;1.23;;;;;;;;;;9199157;19;20265;-74
2022/10/16 05:41:10;;;;;;;2.72;1.70;;;11.60;99.90;;;;;;9199438;19;20363;-74
2022/10/16 05:44:14;;;;;;;2.90;1.50;;;11.70;99.90;;;;;;9196872;19;19978;-74
2022/10/16 05:47:20;;;;;;;3.20;1.40;;;11.60;99.90;;;;;;9199350;19;19921;-73
2022/10/16 05:50:27;;;;;;;5.68;1.60;;;11.90;99.90;;;;;;9198588;19;19910;-73
2022/10/16 05:53:30;;;;;;;;;;;12.00;99.90;;;;;;9200334;19;20325;-74
2022/10/16 05:56:34;;;;;;;;;;;11.90;99.90;;;;;;9205274;19;19919;-73
2022/10/16 05:59:38;;;;;;;;;;;12.00;99.90;;;;;;9200587;19;19918;-74
2022/10/16 06:02:41;;;;;;;2.92;1.27;;;12.80;99.90;;;;;;9197983;19;19918;-73
2022/10/16 06:05:48;;;;;;;4.05;1.45;;;11.20;99.90;;;;;;9198268;19;19918;-75
2022/10/16 06:08:52;;;;;;;2.33;1.42;;;12.00;99.90;;;;;;9197897;19;19911;-74
2022/10/16 06:11:56;;;;;;;2.70;1.20;;;;;;;;;;9198539;19;19910;-74
2022/10/16 06:15:00;;;;;;;3.42;1.13;;;11.40;99.90;;;;;;9197794;19;19925;-73
2022/10/16 06:18:04;;;;;;;5.63;1.73;;;12.00;99.90;;;;;;9198239;19;19948;-74
2022/10/16 06:21:14;;;;;;;3.05;2.00;;;11.20;99.90;;;;;;9197442;19;19917;-74
2022/10/16 06:24:18;;;;;;;3.30;1.30;;;;;;;;;;9196955;19;19923;-74
2022/10/16 06:27:22;;;;;;;3.10;1.90;;;;;;;;;;9196856;19;20412;-74
2022/10/16 06:30:26;;;;;;;2.53;1.35;;;12.10;99.90;;;;;;9197739;19;19918;-74
2022/10/16 06:33:30;;;;;;;6.78;1.85;;;11.40;99.90;;;;;;9197241;19;20079;-74
2022/10/16 06:36:37;;;;;;;1.98;1.50;;;12.50;99.90;;;;;;9197341;19;19954;-74
2022/10/16 06:39:41;;;;;;;3.72;1.33;;;;;;;;;;9196787;19;19949;-74
2022/10/16 06:42:45;;;;;;;2.70;1.00;;;11.20;99.90;;;;;;9197613;19;19929;-73
2022/10/16 06:45:54;;;;;;;4.20;1.67;;;11.70;99.90;;;;;;9197002;19;19918;-73
2022/10/16 06:48:58;;;;;;;2.90;1.70;;;12.50;99.90;;;;;;9196932;19;19939;-74
2022/10/16 06:52:05;;;;;;;5.13;1.40;;;12.40;99.90;;;;;;9197085;19;19922;-74
2022/10/16 06:55:10;;;;;;;2.58;1.40;;;12.50;99.90;;;;;;9198997;19;19922;-74
2022/10/16 06:58:14;;;;;;;4.32;1.50;;;;;;;;;;9196011;19;19911;-74
2022/10/16 07:01:19;;;;;;;4.63;1.63;;;12.50;99.90;;;;;;9196809;19;19978;-74
2022/10/16 07:04:23;;;;;;;3.35;1.63;;;11.70;99.90;;;;;;9194757;19;19971;-74
2022/10/16 07:07:30;;;;;;;2.65;1.63;;;12.20;99.90;;;;;;9196224;19;20291;-74
2022/10/16 07:10:34;;;;;;;3.47;1.15;;;;;;;;;;9196124;19;19911;-74
2022/10/16 07:13:38;;;;;;;5.38;2.08;;;12.00;99.90;;;;;;9196237;19;19974;-74
2022/10/16 07:16:46;;;;;;;3.72;1.33;;;12.70;99.90;;;;;;9194827;19;19933;-74
2022/10/16 07:19:52;;;;;;;2.08;1.17;;;11.70;99.90;;;;;;9195917;19;20349;-74
2022/10/16 07:22:59;;;;;;;2.55;1.10;;;13.10;99.90;;;;;;9197317;19;19919;-74
2022/10/16 07:26:03;;;;;;;3.03;1.42;;;12.10;99.90;;;;;;9194990;19;19922;-75
2022/10/16 07:29:07;;;;;;;3.22;1.25;;;12.70;99.90;;;;;;9195580;19;19978;-74
2022/10/16 07:32:11;;;;;;;2.42;1.15;;;13.20;99.90;;;;;;9195987;19;19915;-75
2022/10/16 07:35:15;;;;;;;3.60;1.30;;;11.90;99.90;;;;;;9195766;19;19993;-75
2022/10/16 07:38:23;;;;;;;3.47;1.35;;;13.40;99.90;;;;;;9194764;19;19979;-74
2022/10/16 07:41:27;;;;;;;3.05;1.20;;;12.40;99.90;;;;;;9193879;19;19937;-75
2022/10/16 07:44:31;;;;;;;2.42;1.55;;;12.80;99.90;;;;;;9192131;19;19919;-74
2022/10/16 07:47:35;;;;;;;2.75;1.00;;;12.30;99.90;;;;;;9195607;19;20338;-74
2022/10/16 07:50:38;;;;;;;1.80;1.05;;;12.00;99.90;;;;;;9194953;19;19926;-75
2022/10/16 07:53:45;;;;;;;4.10;1.20;;;13.40;99.90;;;;;;9197716;19;19922;-75
2022/10/16 07:56:49;;;;;;;2.20;1.23;;;12.70;99.90;;;;;;9193953;19;19914;-74
2022/10/16 07:59:53;;;;;;;2.78;1.15;;;12.40;99.90;;;;;;9196153;19;19911;-75
2022/10/16 08:02:59;;;;;;;3.30;1.20;;;12.30;99.90;;;;;;9194618;19;20294;-75
2022/10/16 08:06:04;;;;;;;3.38;1.33;;;13.50;99.90;;;;;;9192452;19;19919;-75
2022/10/16 08:09:11;;;;;;;4.10;1.20;;;12.50;99.90;;;;;;9194111;19;19910;-75
2022/10/16 08:12:15;;;;;;;3.63;1.02;;;12.30;99.90;;;;;;9194310;19;20245;-74
2022/10/16 08:15:20;;;;;;;3.72;0.90;;;12.40;99.90;;;;;;9193392;19;19919;-75
2022/10/16 08:18:24;;;;;;;2.40;0.95;;;12.80;99.90;;;;;;9194003;19;19919;-74
2022/10/16 08:21:28;;;;;;;4.18;1.50;;;13.60;99.90;;;;;;9195573;19;20335;-74
2022/10/16 08:24:36;;;;;;;2.22;1.25;;;12.40;99.90;;;;;;9192945;19;19941;-75
2022/10/16 08:27:40;;;;;;;2.03;1.25;;;12.40;99.90;;;;;;9193891;19;19939;-75
2022/10/16 08:30:44;;;;;;;2.33;1.13;;;12.50;99.90;;;;;;9193171;19;19926;-74
2022/10/16 08:33:48;;;;;;;2.08;1.30;;;13.80;99.90;;;;;;9193308;19;19918;-75
2022/10/16 08:36:55;;;;;;;2.65;1.10;;;13.60;99.90;;;;;;9192972;19;19941;-75
2022/10/16 08:40:02;;;;;;;4.80;1.23;;;12.70;99.90;;;;;;9193558;19;20331;-74
2022/10/16 08:43:24;;;;;;;3.55;1.20;;;14.10;99.90;;;;;;9192376;19;20264;-75
2022/10/16 08:46:41;;;;;;;1.67;1.20;;;13.00;99.90;;;;;;9193381;19;19966;-74
2022/10/16 08:49:53;;;;;;;4.32;1.02;;;12.80;99.90;;;;;;9192897;19;19921;-74
2022/10/16 08:52:57;;;;;;;4.63;0.80;;;13.10;99.90;;;;;;9197183;19;19926;-74
2022/10/16 08:56:05;;;;;;;2.95;1.08;;;13.00;99.90;;;;;;9189478;19;20341;-74
2022/10/16 08:59:13;;;;;;;1.98;0.88;;;13.20;99.90;;;;;;9192518;19;19911;-73
2022/10/16 09:02:37;;;;;;;2.75;0.98;;;12.90;99.90;;;;;;9192707;19;19919;-73
2022/10/16 09:06:10;;;;;;;3.28;1.33;;;13.00;99.90;;;;;;9190179;19;19929;-73
2022/10/16 09:09:38;;;;;;;4.15;1.55;;;13.10;99.90;;;;;;9190878;19;19920;-74
2022/10/16 09:12:54;;;;;;;4.15;1.80;;;13.10;99.90;;;;;;9192130;19;19923;-74
2022/10/16 09:16:07;;;;;;;2.17;1.33;;;13.20;99.90;;;;;;9190662;19;19918;-74
2022/10/16 09:19:19;;;;;;;3.17;1.08;;;13.80;99.90;;;;;;9192043;19;20260;-74
2022/10/16 09:22:24;;;;;;;;;;;13.70;99.90;;;;;;9193932;19;19915;-74
2022/10/16 09:25:28;;;;;;;6.13;1.05;;;13.20;99.90;;;;;;9189296;19;19925;-74
2022/10/16 09:28:35;;;;;;;2.92;0.80;;;14.10;99.90;;;;;;9191238;19;19962;-75
2022/10/16 09:31:39;;;;;;;3.92;1.00;;;13.40;99.90;;;;;;9190012;19;19922;-74
2022/10/16 09:34:48;;;;;;;3.58;0.73;;;13.80;99.90;;;;;;9190728;19;19922;-75
2022/10/16 09:37:54;;;;;;;1.85;0.82;;;14.90;99.90;;;;;;9190316;19;19910;-74
2022/10/16 09:41:16;;;;;;;2.20;0.60;;;14.40;99.90;;;;;;9191537;19;19915;-75
2022/10/16 09:44:28;;;;;;;2.92;0.68;;;14.40;99.90;;;;;;9188831;19;20333;-74
2022/10/16 09:47:33;;;;;;;6.00;0.82;;;14.60;99.90;;;;;;9190079;19;19922;-73
2022/10/16 09:50:38;;;;;;;3.70;0.63;;;14.80;99.90;;;;;;9193894;19;20393;-73
2022/10/16 09:53:44;;;;;;;2.55;0.90;;;14.40;99.90;;;;;;9189072;19;20244;-74
2022/10/16 09:56:51;;;;;;;3.40;0.90;;;14.50;99.90;;;;;;9189625;19;19915;-74
2022/10/16 10:00:00;;;;;;;6.32;0.85;;;13.80;99.90;;;;;;9189639;19;19923;-74
2022/10/16 10:03:04;;;;;;;3.80;0.82;;;14.90;99.90;;;;;;9190112;19;19915;-74
2022/10/16 10:06:19;;;;;;;4.13;1.10;;;14.10;99.90;;;;;;9187619;19;19919;-74
2022/10/16 10:09:26;;;;;;;3.20;0.85;;;14.60;99.90;;;;;;9197745;19;19911;-74
2022/10/16 10:12:32;;;;;;;4.43;1.05;;;14.20;99.90;;;;;;9198165;19;19918;-74
2022/10/16 10:15:44;;;;;;;8.65;1.08;;;14.90;99.90;;;;;;9197690;19;20349;-74
2022/10/16 10:18:48;;;;;;;13.35;1.83;;;14.20;99.90;;;;;;9198027;19;19919;-74
2022/10/16 10:21:53;;;;;;;2.70;0.90;;;15.50;99.90;;;;;;9199699;19;19914;-74
2022/10/16 10:25:17;;;;;;;7.38;1.13;;;15.20;99.90;;;;;;9195451;19;19926;-74
2022/10/16 10:28:38;;;;;;;10.57;2.25;;;14.90;99.90;;;;;;9198267;19;19922;-74
2022/10/16 10:31:51;;;;;;;4.47;0.82;;;14.60;99.90;;;;;;9198641;19;19953;-74
2022/10/16 10:35:09;;;;;;;5.45;0.98;;;15.50;99.90;;;;;;9197433;19;19978;-75
2022/10/16 10:38:29;;;;;;;8.07;1.33;;;15.40;99.90;;;;;;9197049;19;19907;-74
2022/10/16 10:42:01;;;;;;;4.10;0.85;;;15.40;99.90;;;;;;9196675;19;19925;-74
2022/10/16 10:45:26;;;;;;;7.35;1.17;;;15.70;99.90;;;;;;9195761;19;19919;-75
2022/10/16 10:49:09;;;;;;;7.05;0.98;;;15.50;99.90;;;;;;9198529;19;19925;-75
2022/10/16 10:52:34;;;;;;;11.63;1.13;;;16.10;99.90;;;;;;9196873;19;19917;-74
2022/10/16 10:55:42;;;;;;;6.68;1.33;;;15.70;99.90;;;;;;9192985;19;20337;-74
2022/10/16 10:59:11;;;;;;;6.07;0.93;;;16.40;99.90;;;;;;9196615;19;19975;-74
2022/10/16 11:02:24;;;;;;;4.32;0.88;;;17.20;99.90;;;;;;9196088;19;20647;-73
2022/10/16 11:05:47;;;;;;;7.80;1.05;;;16.90;99.90;;;;;;9194540;19;19915;-74
2022/10/16 11:08:55;;;;;;;7.78;1.40;;;15.70;99.90;;;;;;9195749;19;19976;-74
2022/10/16 11:12:04;;;;;;;7.32;0.85;;;15.90;99.90;;;;;;9196263;19;19923;-74
2022/10/16 11:15:17;;;;;;;10.25;1.20;;;16.20;99.90;;;;;;9196119;19;19910;-74
2022/10/16 11:18:25;;;;;;;7.53;1.10;;;15.80;99.90;;;;;;9193849;19;19921;-73
2022/10/16 11:21:36;;;;;;;6.82;1.00;;;15.50;99.90;;;;;;9198962;19;19933;-73
2022/10/16 11:24:48;;;;;;;7.22;0.80;;;15.30;99.90;;;;;;9194863;19;19919;-74
2022/10/16 11:27:54;;;;;;;;;;;15.80;99.90;;;;;;9197659;19;19915;-73
2022/10/16 11:31:04;;;;;;;5.90;0.80;;;16.40;99.90;;;;;;9195241;19;19910;-73
2022/10/16 11:34:17;;;;;;;5.65;1.83;;;16.60;99.90;;;;;;9195091;19;20333;-73
2022/10/16 11:37:31;;;;;;;6.45;1.27;;;15.40;99.90;;;;;;9194842;19;20264;-74
2022/10/16 11:40:41;;;;;;;7.88;1.10;;;15.70;99.90;;;;;;9195567;19;19963;-74
2022/10/16 11:43:54;;;;;;;9.73;1.63;;;15.60;99.90;;;;;;9195216;19;19919;-74
2022/10/16 11:47:11;;;;;;;5.75;1.10;;;15.20;99.90;;;;;;9193162;19;19949;-73
2022/10/16 11:50:25;;;;;;;3.90;1.13;;;15.10;99.90;;;;;;9194825;19;19915;-75
2022/10/16 11:53:44;;;;;;;5.35;1.15;;;14.60;99.90;;;;;;9194660;19;19978;-74
2022/10/16 11:56:51;;;;;;;4.20;0.75;;;16.00;99.90;;;;;;9194396;19;19910;-74
2022/10/16 12:00:03;;;;;;;6.70;0.90;;;16.30;99.90;;;;;;9194528;19;20367;-74
2022/10/16 12:03:17;;;;;;;4.05;1.00;;;16.60;99.90;;;;;;9194118;19;19997;-74
2022/10/16 12:06:30;;;;;;;4.50;0.73;;;16.00;99.90;;;;;;9193496;19;19983;-73
2022/10/16 12:09:41;;;;;;;4.80;2.08;;;17.30;99.90;;;;;;9194525;19;19986;-74
2022/10/16 12:12:46;;;;;;;5.43;0.82;;;;;;;;;;9194035;19;20320;-73
2022/10/16 12:15:50;;;;;;;5.65;0.93;;;16.60;99.90;;;;;;9193776;19;19919;-73
2022/10/16 12:19:13;;;;;;;5.20;0.80;;;16.70;99.90;;;;;;9195515;19;19933;-75
2022/10/16 12:22:21;;;;;;;6.60;1.17;;;17.00;99.90;;;;;;9193966;19;19949;-74
2022/10/16 12:25:30;;;;;;;4.75;1.20;;;16.40;99.90;;;;;;9192092;19;19951;-73
2022/10/16 12:28:36;;;;;;;5.78;1.05;;;18.10;99.90;;;;;;9193511;19;19918;-74
2022/10/16 12:31:45;;;;;;;8.43;1.00;;;17.20;99.90;;;;;;9192972;19;19925;-73
2022/10/16 12:34:52;;;;;;;5.90;1.00;;;17.30;99.90;;;;;;9199276;19;19926;-74
2022/10/16 12:37:57;;;;;;;6.53;0.85;;;17.60;99.90;;;;;;9193099;19;19957;-73
2022/10/16 12:41:08;;;;;;;6.05;0.82;;;17.20;99.90;;;;;;9193238;19;19914;-74
2022/10/16 12:44:24;;;;;;;;;;;17.80;99.90;;;;;;9195898;19;19914;-74
2022/10/16 12:47:40;;;;;;;5.35;0.90;;;17.00;99.90;;;;;;9191861;19;19943;-73
2022/10/16 12:50:44;;;;;;;3.60;0.98;;;17.30;99.90;;;;;;9192511;19;20256;-74
2022/10/16 12:53:48;;;;;;;9.30;2.78;;;16.60;99.90;;;;;;9192388;19;19915;-75
2022/10/16 12:57:08;;;;;;;4.15;1.25;;;17.30;99.90;;;;;;9192083;19;19929;-75
2022/10/16 13:00:23;;;;;;;7.55;1.30;;;17.80;99.90;;;;;;9193270;19;20359;-74
2022/10/16 13:03:55;;;;;;;9.38;0.88;;;17.70;99.90;;;;;;9192294;19;20343;-74
2022/10/16 13:07:12;;;;;;;6.53;1.30;;;18.70;99.90;;;;;;9190529;19;20333;-74
2022/10/16 13:10:26;;;;;;;4.47;0.90;;;19.10;99.00;;;;;;9192127;19;19914;-74
2022/10/16 13:14:02;;;;;;;3.35;0.63;;;17.10;99.80;;;;;;9191349;19;19923;-74
2022/10/16 13:17:14;;;;;;;4.75;0.90;;;17.50;97.60;;;;;;9190483;19;19914;-74
2022/10/16 13:20:25;;;;;;;7.30;1.10;;;18.90;98.10;;;;;;9191252;19;19977;-74
2022/10/16 13:23:36;;;;;;;7.80;0.93;;;18.40;98.50;;;;;;9191486;19;20350;-74
2022/10/16 13:26:47;;;;;;;7.93;1.33;;;17.60;99.00;;;;;;9189655;19;19914;-73
2022/10/16 13:29:57;;;;;;;5.57;1.10;;;18.30;97.80;;;;;;9190784;19;19914;-74
2022/10/16 13:33:06;;;;;;;8.27;1.27;;;19.30;98.80;;;;;;9191080;19;19925;-74
2022/10/16 13:36:23;;;;;;;5.72;1.00;;;18.40;97.70;;;;;;9190580;19;19915;-74
2022/10/16 13:39:30;;;;;;;5.45;1.20;;;18.30;96.70;;;;;;9190720;19;21154;-74
2022/10/16 13:42:35;;;;;;;4.45;0.95;;;19.40;97.10;;;;;;9193766;19;19915;-75
2022/10/16 13:45:42;;;;;;;2.45;0.52;;;18.30;96.40;;;;;;9197256;19;19922;-73
2022/10/16 13:48:58;;;;;;;6.45;1.10;;;19.20;98.20;;;;;;9201073;19;19923;-73
2022/10/16 13:52:02;;;;;;;5.55;0.90;;;18.00;98.20;;;;;;9198407;19;19915;-74
2022/10/16 13:55:12;;;;;;;5.10;0.90;;;19.40;97.10;;;;;;9195380;19;20472;-74
2022/10/16 13:58:17;;;;;;;3.22;0.68;;;19.10;96.20;;;;;;9198503;19;19935;-73
2022/10/16 14:01:28;;;;;;;6.35;0.93;;;19.30;96.60;;;;;;9197924;19;20242;-74
2022/10/16 14:04:35;;;;;;;7.57;1.70;;;18.50;95.90;;;;;;9198819;19;19911;-74
2022/10/16 14:07:40;;;;;;;7.25;1.13;;;19.30;96.30;;;;;;9195290;19;19929;-74
2022/10/16 14:10:44;;;;;;;6.88;1.20;;;19.30;96.20;;;;;;9198228;19;19922;-74
2022/10/16 14:13:49;;;;;;;9.30;1.63;;;19.10;95.30;;;;;;9197978;19;19921;-74
2022/10/16 14:16:56;;;;;;;6.63;1.30;;;18.70;96.00;;;;;;9199328;19;19922;-74
2022/10/16 14:20:02;;;;;;;5.60;1.02;;;19.00;94.70;;;;;;9197672;19;19911;-75
2022/10/16 14:23:07;;;;;;;;;;;19.10;95.50;;;;;;9200192;19;19914;-75
2022/10/16 14:26:18;;;;;;;5.53;1.13;;;19.20;93.00;;;;;;9195972;19;19918;-75
2022/10/16 14:29:23;;;;;;;4.95;1.08;;;19.10;94.10;;;;;;9197449;19;19931;-74
2022/10/16 14:32:30;;;;;;;3.55;1.23;;;20.20;93.40;;;;;;9197465;19;19915;-74
2022/10/16 14:35:36;;;;;;;4.45;0.88;;;20.00;92.80;;;;;;9197251;19;19925;-74
2022/10/16 14:38:41;;;;;;;7.82;0.95;;;18.50;93.30;;;;;;9197340;19;19918;-74
2022/10/16 14:41:49;;;;;;;5.82;1.38;;;18.40;93.00;;;;;;9197423;19;19915;-73
2022/10/16 14:44:54;;;;;;;2.85;0.60;;;17.60;94.50;;;;;;9198598;19;19982;-73
2022/10/16 14:48:04;;;;;;;4.53;0.65;;;18.50;94.70;;;;;;9206114;19;19939;-74
2022/10/16 14:51:15;;;;;;;3.45;0.80;;;18.10;95.40;;;;;;9207560;19;19911;-75
2022/10/16 14:54:21;;;;;;;4.00;0.70;;;17.60;95.10;;;;;;9193218;19;19925;-73
2022/10/16 14:57:29;;;;;;;7.28;1.15;;;17.70;95.90;;;;;;9196572;19;19939;-74
2022/10/16 15:00:33;;;;;;;6.90;1.08;;;17.40;97.30;;;;;;9196414;19;19941;-73
2022/10/16 15:03:39;;;;;;;4.35;0.88;;;17.00;96.50;;;;;;9196306;19;19944;-74
2022/10/16 15:06:44;;;;;;;5.05;0.70;;;16.40;98.30;;;;;;9194734;19;20349;-74
2022/10/16 15:09:48;;;;;;;5.97;1.10;;;16.60;98.90;;;;;;9196470;19;20280;-74
2022/10/16 15:12:52;;;;;;;9.32;1.67;;;16.90;99.20;;;;;;9196064;19;20361;-74
2022/10/16 15:15:58;;;;;;;6.47;1.10;;;17.10;99.00;;;;;;9198244;19;19935;-75
2022/10/16 15:19:04;;;;;;;6.35;1.70;;;16.40;99.80;;;;;;9195978;19;20336;-75
2022/10/16 15:22:08;;;;;;;10.02;2.00;;;16.90;99.90;;;;;;9196669;19;19985;-74
2022/10/16 15:25:30;;;;;;;7.22;1.00;;;16.10;99.90;;;;;;9195822;19;19925;-74
2022/10/16 15:28:35;;;;;;;9.35;1.30;;;16.40;99.90;;;;;;9195831;19;20264;-74
2022/10/16 15:31:42;;;;;;;7.60;1.20;;;15.90;99.90;;;;;;9195863;19;20260;-74
2022/10/16 15:34:48;;;;;;;6.13;1.55;;;16.60;99.90;;;;;;9195689;19;19915;-74
2022/10/16 15:37:52;;;;;;;4.47;1.40;;;16.40;99.90;;;;;;9195392;19;19931;-75
2022/10/16 15:40:56;;;;;;;9.07;1.45;;;;;;;;;;9195613;19;19922;-74
2022/10/16 15:44:00;;;;;;;7.43;1.17;;;15.80;99.90;;;;;;9195019;19;19914;-75
2022/10/16 15:47:04;;;;;;;4.70;0.90;;;15.80;99.90;;;;;;9199349;19;19922;-74
2022/10/16 15:50:13;;;;;;;8.65;1.80;;;15.30;99.90;;;;;;9194874;19;20596;-75
2022/10/16 15:53:17;;;;;;;6.32;1.90;;;15.50;99.90;;;;;;9195167;19;19925;-74
2022/10/16 15:56:21;;;;;;;9.65;1.40;;;15.60;99.90;;;;;;9194479;19;19915;-75
2022/10/16 15:59:25;;;;;;;5.50;1.10;;;15.40;99.90;;;;;;9195306;19;19911;-75
2022/10/16 16:02:30;;;;;;;8.77;1.25;;;15.40;99.90;;;;;;9194169;19;20275;-75
2022/10/16 16:05:41;;;;;;;6.18;1.80;;;15.40;99.90;;;;;;9193341;19;19926;-74
2022/10/16 16:08:44;;;;;;;6.20;1.15;;;15.60;99.90;;;;;;9194786;19;19926;-74
2022/10/16 16:11:49;;;;;;;5.78;1.95;;;15.60;99.90;;;;;;9194365;19;20384;-75
2022/10/16 16:14:52;;;;;;;9.63;1.85;;;15.40;99.90;;;;;;9194003;19;20397;-74
2022/10/16 16:17:57;;;;;;;8.25;2.45;;;15.40;99.90;;;;;;9198230;19;19919;-73
2022/10/16 16:21:03;;;;;;;7.88;1.50;;;15.60;99.90;;;;;;9193481;19;20345;-73
2022/10/16 16:24:07;;;;;;;8.80;2.40;;;14.70;99.90;;;;;;9194148;19;19943;-74
2022/10/16 16:27:13;;;;;;;7.95;1.90;;;;;;;;;;9192176;19;19911;-74